Time;durP1;ratioP1;P1;durP2;ratioP2;P2;SDS_P1;SDS_P2;PMS_P1;PMS_P2;Temp;Humidity;BMP_temperature;BMP_pressure;BME280_temperature;BME280_humidity;BME280_pressure;Samples;Min_cycle;Max_cycle;Signal;HPM_P1;HPM_P2
2021/08/15 00:00:18;;;;;;;23.60;21.20;;;19.50;99.90;;;;;;5112689;28;20465;-68
2021/08/15 00:02:46;;;;;;;23.00;20.90;;;19.50;99.90;;;;;;5113583;28;20451;-68
2021/08/15 00:05:13;;;;;;;24.90;20.80;;;19.40;99.90;;;;;;5113499;28;20441;-68
2021/08/15 00:07:42;;;;;;;23.70;21.47;;;19.30;99.90;;;;;;5114366;28;20437;-68
2021/08/15 00:10:09;;;;;;;23.43;20.93;;;19.30;99.90;;;;;;5113478;28;20465;-68
2021/08/15 00:12:38;;;;;;;25.40;23.03;;;19.30;99.90;;;;;;5114586;28;20964;-68
2021/08/15 00:15:06;;;;;;;23.53;21.33;;;19.20;99.90;;;;;;5113042;28;20441;-68
2021/08/15 00:17:33;;;;;;;24.67;22.27;;;19.20;99.90;;;;;;5113621;28;20564;-67
2021/08/15 00:20:00;;;;;;;23.00;20.90;;;19.10;99.90;;;;;;5112193;28;20990;-68
2021/08/15 00:22:27;;;;;;;24.33;21.50;;;19.10;99.90;;;;;;5112936;28;20448;-68
2021/08/15 00:24:55;;;;;;;24.23;21.93;;;19.10;99.90;;;;;;5113006;28;20448;-68
2021/08/15 00:27:22;;;;;;;23.80;21.43;;;19.10;99.90;;;;;;5113042;28;20457;-68
2021/08/15 00:29:49;;;;;;;25.37;22.90;;;19.10;99.90;;;;;;5111999;28;20461;-67
2021/08/15 00:32:16;;;;;;;26.43;23.63;;;19.10;99.90;;;;;;5112986;28;20441;-68
2021/08/15 00:34:43;;;;;;;24.73;22.23;;;19.20;99.90;;;;;;5112656;28;21026;-68
2021/08/15 00:37:09;;;;;;;24.87;22.47;;;19.10;99.90;;;;;;5113250;28;20476;-68
2021/08/15 00:39:36;;;;;;;24.10;21.80;;;19.10;99.90;;;;;;5111973;28;20991;-67
2021/08/15 00:42:05;;;;;;;22.90;20.80;;;19.00;99.90;;;;;;5110751;28;20445;-68
2021/08/15 00:44:32;;;;;;;23.57;21.20;;;19.10;99.90;;;;;;5112592;28;20445;-68
2021/08/15 00:46:59;;;;;;;24.57;22.07;;;19.00;99.90;;;;;;5112747;28;20451;-68
2021/08/15 00:49:26;;;;;;;22.70;20.37;;;19.00;99.90;;;;;;5111974;28;20832;-68
2021/08/15 00:51:53;;;;;;;22.90;20.77;;;18.90;99.90;;;;;;5112706;28;20459;-67
2021/08/15 00:54:20;;;;;;;23.13;20.87;;;18.90;99.90;;;;;;5112406;28;20456;-67
2021/08/15 00:56:49;;;;;;;24.60;21.97;;;18.90;99.90;;;;;;5112653;28;20492;-67
2021/08/15 00:59:18;;;;;;;23.13;21.00;;;18.80;99.90;;;;;;5111875;28;20564;-68
2021/08/15 01:01:45;;;;;;;23.20;21.00;;;18.80;99.90;;;;;;5112345;28;20465;-67
2021/08/15 01:04:12;;;;;;;24.07;21.67;;;18.80;99.90;;;;;;5112601;28;20451;-67
2021/08/15 01:06:39;;;;;;;25.17;22.67;;;18.70;99.90;;;;;;5112582;28;20451;-68
2021/08/15 01:09:07;;;;;;;25.13;22.80;;;18.70;99.90;;;;;;5111665;28;20528;-67
2021/08/15 01:11:35;;;;;;;25.00;22.60;;;18.70;99.90;;;;;;5112254;28;20507;-68
2021/08/15 01:14:02;;;;;;;24.53;22.13;;;18.70;99.90;;;;;;5112342;28;20484;-68
2021/08/15 01:16:31;;;;;;;22.50;20.30;;;18.70;99.90;;;;;;5111847;28;20481;-68
2021/08/15 01:18:57;;;;;;;23.70;21.30;;;18.60;99.90;;;;;;5111362;28;20489;-68
2021/08/15 01:21:24;;;;;;;22.50;20.20;;;18.60;99.90;;;;;;5111711;28;20465;-68
2021/08/15 01:23:51;;;;;;;24.27;21.67;;;18.60;99.90;;;;;;5111859;28;20444;-68
2021/08/15 01:26:21;;;;;;;24.00;21.70;;;18.70;99.90;;;;;;5111698;28;20448;-68
2021/08/15 01:28:52;;;;;;;23.57;21.20;;;18.60;99.90;;;;;;5111480;28;20445;-68
2021/08/15 01:31:20;;;;;;;22.30;20.27;;;18.70;99.90;;;;;;5111145;28;21013;-68
2021/08/15 01:33:47;;;;;;;23.80;21.50;;;18.70;99.90;;;;;;5111799;28;21354;-67
2021/08/15 01:36:15;;;;;;;23.27;21.17;;;18.70;99.90;;;;;;5111523;28;20479;-68
2021/08/15 01:38:43;;;;;;;24.17;21.73;;;18.60;99.90;;;;;;5111678;28;20541;-68
2021/08/15 01:41:10;;;;;;;25.83;22.87;;;18.60;99.90;;;;;;5110548;28;20462;-68
2021/08/15 01:43:52;;;;;;;23.83;21.53;;;18.50;99.90;;;;;;5111642;28;21037;-68
2021/08/15 01:46:21;;;;;;;23.33;21.00;;;18.50;99.90;;;;;;5111385;28;20537;-69
2021/08/15 01:48:48;;;;;;;23.73;21.43;;;18.40;99.90;;;;;;5111396;28;20464;-68
2021/08/15 01:51:16;;;;;;;24.67;22.13;;;18.50;99.90;;;;;;5110641;28;20465;-68
2021/08/15 01:53:43;;;;;;;27.83;21.37;;;18.60;99.90;;;;;;5111656;28;20449;-68
2021/08/15 01:56:10;;;;;;;25.00;22.60;;;18.60;99.90;;;;;;5111065;28;20495;-68
2021/08/15 01:58:37;;;;;;;25.27;22.73;;;18.50;99.90;;;;;;5111454;28;20471;-68
2021/08/15 02:01:06;;;;;;;23.10;20.73;;;18.50;99.90;;;;;;5110331;28;21013;-68
2021/08/15 02:03:33;;;;;;;24.63;22.33;;;18.40;99.90;;;;;;5110803;28;20517;-68
2021/08/15 02:06:00;;;;;;;23.80;21.70;;;18.40;99.90;;;;;;5110796;28;20939;-68
2021/08/15 02:08:27;;;;;;;24.27;21.80;;;18.40;99.90;;;;;;5111217;28;20449;-68
2021/08/15 02:10:54;;;;;;;23.20;20.90;;;18.40;99.90;;;;;;5110056;28;20544;-67
2021/08/15 02:13:21;;;;;;;24.67;22.30;;;18.40;99.90;;;;;;5111277;28;20445;-68
2021/08/15 02:15:47;;;;;;;26.57;23.20;;;18.30;99.90;;;;;;5110653;28;20492;-68
2021/08/15 02:18:16;;;;;;;26.40;23.70;;;18.20;99.90;;;;;;5111080;28;20441;-68
2021/08/15 02:20:43;;;;;;;24.53;22.13;;;18.30;99.90;;;;;;5109951;28;20473;-68
2021/08/15 02:23:09;;;;;;;25.50;23.10;;;18.40;99.90;;;;;;5110956;28;20443;-67
2021/08/15 02:25:37;;;;;;;24.03;21.67;;;18.40;99.90;;;;;;5110403;28;20471;-67
2021/08/15 02:28:04;;;;;;;25.00;22.50;;;18.40;99.90;;;;;;5110838;28;20524;-68
2021/08/15 02:30:31;;;;;;;25.47;23.17;;;18.40;99.90;;;;;;5110033;28;20475;-69
2021/08/15 02:32:58;;;;;;;26.83;24.23;;;18.40;99.90;;;;;;5110580;28;20441;-67
2021/08/15 02:35:31;;;;;;;26.27;23.77;;;18.40;99.90;;;;;;5110103;28;20445;-68
2021/08/15 02:37:58;;;;;;;22.40;20.23;;;18.40;99.90;;;;;;5110797;28;20425;-67
2021/08/15 02:40:25;;;;;;;25.07;22.67;;;18.30;99.90;;;;;;5109786;28;20986;-68
2021/08/15 02:42:52;;;;;;;23.37;21.07;;;18.20;99.90;;;;;;5110581;28;20470;-67
2021/08/15 02:45:21;;;;;;;23.07;20.67;;;18.10;99.90;;;;;;5110200;28;20969;-68
2021/08/15 02:47:48;;;;;;;22.80;20.60;;;18.10;99.90;;;;;;5110467;28;20451;-68
2021/08/15 02:50:16;;;;;;;23.70;21.40;;;18.00;99.90;;;;;;5109917;28;20465;-68
2021/08/15 02:52:44;;;;;;;24.87;22.23;;;18.00;99.90;;;;;;5110645;28;20955;-67
2021/08/15 02:55:12;;;;;;;25.07;22.57;;;18.00;99.90;;;;;;5110300;28;20879;-68
2021/08/15 02:57:39;;;;;;;22.70;20.47;;;18.00;99.90;;;;;;5110343;28;20576;-68
2021/08/15 03:00:09;;;;;;;23.90;21.50;;;18.00;99.90;;;;;;5109689;28;20461;-68
2021/08/15 03:02:36;;;;;;;24.13;21.90;;;17.90;99.90;;;;;;5110749;28;20449;-67
2021/08/15 03:05:03;;;;;;;25.27;22.97;;;17.90;99.90;;;;;;5110242;28;20556;-68
2021/08/15 03:07:30;;;;;;;24.90;22.47;;;17.80;99.90;;;;;;5110572;28;20440;-68
2021/08/15 03:09:58;;;;;;;23.83;21.63;;;17.90;99.90;;;;;;5109645;28;20556;-67
2021/08/15 03:12:25;;;;;;;24.60;22.27;;;17.90;99.90;;;;;;5110634;28;20808;-67
2021/08/15 03:14:52;;;;;;;27.23;24.53;;;17.80;99.90;;;;;;5110660;28;20939;-68
2021/08/15 03:17:19;;;;;;;25.53;23.13;;;17.90;99.90;;;;;;5114414;28;21058;-68
2021/08/15 03:19:46;;;;;;;26.20;23.40;;;17.90;99.90;;;;;;5113649;28;20490;-67
2021/08/15 03:22:13;;;;;;;26.90;24.10;;;17.90;99.90;;;;;;5114699;28;20447;-68
2021/08/15 03:24:40;;;;;;;26.17;23.63;;;17.90;99.90;;;;;;5113923;28;20449;-68
2021/08/15 03:27:08;;;;;;;27.50;24.90;;;17.90;99.90;;;;;;5114301;28;20532;-68
2021/08/15 03:29:35;;;;;;;29.50;26.47;;;17.80;99.90;;;;;;5113479;28;20469;-69
2021/08/15 03:32:02;;;;;;;28.53;25.67;;;17.80;99.90;;;;;;5114211;28;21026;-67
2021/08/15 03:34:29;;;;;;;28.00;25.30;;;17.80;99.90;;;;;;5114107;28;20485;-68
2021/08/15 03:36:56;;;;;;;28.87;25.97;;;17.80;99.90;;;;;;5114122;28;21020;-68
2021/08/15 03:39:23;;;;;;;27.73;25.07;;;17.80;99.90;;;;;;5113736;28;20445;-68
2021/08/15 03:41:50;;;;;;;29.10;26.10;;;17.90;99.90;;;;;;5114937;28;20518;-68
2021/08/15 03:44:18;;;;;;;30.07;27.20;;;17.80;99.90;;;;;;5114220;28;20445;-68
2021/08/15 03:46:45;;;;;;;29.33;26.23;;;17.80;99.90;;;;;;5114271;28;20471;-68
2021/08/15 03:49:13;;;;;;;29.80;27.00;;;17.70;99.90;;;;;;5113149;28;20452;-68
2021/08/15 03:51:40;;;;;;;28.40;25.70;;;17.60;99.90;;;;;;5113681;28;20461;-68
2021/08/15 03:54:07;;;;;;;29.13;26.20;;;17.60;99.90;;;;;;5113684;28;20544;-68
2021/08/15 03:56:34;;;;;;;29.30;26.43;;;17.60;99.90;;;;;;5113389;28;20469;-68
2021/08/15 03:59:00;;;;;;;27.87;25.07;;;17.70;99.90;;;;;;5113255;28;20535;-68
2021/08/15 04:01:29;;;;;;;27.30;24.60;;;17.70;99.90;;;;;;5113349;28;21016;-68
2021/08/15 04:03:56;;;;;;;30.03;27.13;;;17.60;99.90;;;;;;5113822;28;20452;-68
2021/08/15 04:06:22;;;;;;;26.97;24.57;;;17.60;99.90;;;;;;5113307;28;20556;-68
2021/08/15 04:08:51;;;;;;;32.13;29.17;;;17.50;99.90;;;;;;5113279;28;20448;-68
2021/08/15 04:11:18;;;;;;;30.10;27.07;;;17.60;99.90;;;;;;5112814;28;20473;-68
2021/08/15 04:13:45;;;;;;;30.00;27.00;;;17.50;99.90;;;;;;5113768;28;20441;-68
2021/08/15 04:16:12;;;;;;;31.77;28.57;;;17.50;99.90;;;;;;5113393;28;20540;-68
2021/08/15 04:18:41;;;;;;;29.07;26.27;;;17.50;99.90;;;;;;5113430;28;20464;-68
2021/08/15 04:21:08;;;;;;;30.47;27.23;;;17.50;99.90;;;;;;5112726;28;20469;-68
2021/08/15 04:23:35;;;;;;;27.73;24.83;;;17.50;99.90;;;;;;5113270;28;20433;-68
2021/08/15 04:26:02;;;;;;;28.93;26.23;;;17.60;99.90;;;;;;5112452;28;20858;-68
2021/08/15 04:28:29;;;;;;;28.37;25.53;;;17.60;99.90;;;;;;5113456;28;20443;-68
2021/08/15 04:30:56;;;;;;;32.90;27.90;;;17.60;99.90;;;;;;5112448;28;20461;-68
2021/08/15 04:33:24;;;;;;;32.00;28.80;;;17.60;99.90;;;;;;5113257;28;20969;-68
2021/08/15 04:35:53;;;;;;;33.40;30.00;;;17.60;99.90;;;;;;5112702;28;20449;-67
2021/08/15 04:38:20;;;;;;;28.70;25.90;;;17.70;99.90;;;;;;5112669;28;21165;-68
2021/08/15 04:40:48;;;;;;;27.03;24.53;;;17.70;99.90;;;;;;5112232;28;20564;-68
2021/08/15 04:43:15;;;;;;;26.50;23.80;;;17.70;99.90;;;;;;5113061;28;20875;-68
2021/08/15 04:45:42;;;;;;;24.60;22.33;;;17.70;99.90;;;;;;5112419;28;20473;-68
2021/08/15 04:48:09;;;;;;;24.13;21.70;;;17.60;99.90;;;;;;5113104;28;20442;-69
2021/08/15 04:50:36;;;;;;;28.70;25.13;;;17.70;99.90;;;;;;5111937;28;20552;-68
2021/08/15 04:53:04;;;;;;;26.73;24.23;;;17.60;99.90;;;;;;5112614;28;20798;-70
2021/08/15 04:55:31;;;;;;;28.10;25.30;;;17.60;99.90;;;;;;5112161;28;20442;-68
2021/08/15 04:57:59;;;;;;;28.37;25.50;;;17.60;99.90;;;;;;5112683;28;20477;-68
2021/08/15 05:00:26;;;;;;;26.87;24.37;;;17.60;99.90;;;;;;5111670;28;20461;-68
2021/08/15 05:02:53;;;;;;;27.60;25.00;;;17.70;99.90;;;;;;5112844;28;20480;-68
2021/08/15 05:05:20;;;;;;;25.90;23.50;;;17.70;99.90;;;;;;5112245;28;20441;-68
2021/08/15 05:07:47;;;;;;;25.97;23.50;;;17.80;99.90;;;;;;5112637;28;20480;-67
2021/08/15 05:10:15;;;;;;;24.70;22.43;;;17.90;99.90;;;;;;5111917;28;20457;-68
2021/08/15 05:12:42;;;;;;;25.70;23.17;;;17.90;99.90;;;;;;5112550;27;20452;-68
2021/08/15 05:15:09;;;;;;;26.53;23.97;;;17.90;99.90;;;;;;5112030;28;20966;-68
2021/08/15 05:17:36;;;;;;;26.63;23.93;;;17.90;99.90;;;;;;5112044;28;20558;-69
2021/08/15 05:20:04;;;;;;;26.60;24.17;;;18.00;99.90;;;;;;5111196;28;20485;-68
2021/08/15 05:22:31;;;;;;;25.17;22.80;;;18.10;99.90;;;;;;5112051;28;20475;-68
2021/08/15 05:24:58;;;;;;;24.87;22.50;;;18.10;99.90;;;;;;5111719;28;20449;-69
2021/08/15 05:27:26;;;;;;;26.30;23.83;;;18.10;99.90;;;;;;5111787;28;20453;-68
2021/08/15 05:29:53;;;;;;;25.67;23.23;;;18.20;99.90;;;;;;5111197;28;20465;-69
2021/08/15 05:32:20;;;;;;;26.33;23.73;;;18.30;99.90;;;;;;5111692;28;20961;-68
2021/08/15 05:34:46;;;;;;;25.80;23.50;;;18.30;99.90;;;;;;5111413;28;20495;-69
2021/08/15 05:37:13;;;;;;;26.60;23.93;;;18.40;99.90;;;;;;5111149;28;20485;-68
2021/08/15 05:39:40;;;;;;;23.27;21.07;;;18.40;99.90;;;;;;5110810;28;20445;-68
2021/08/15 05:42:07;;;;;;;24.73;22.40;;;18.50;99.90;;;;;;5111924;28;20437;-69
2021/08/15 05:44:35;;;;;;;23.07;20.87;;;18.60;99.90;;;;;;5111548;28;20441;-68
2021/08/15 05:47:04;;;;;;;22.50;20.40;;;18.80;99.90;;;;;;5111587;28;20443;-69
2021/08/15 05:49:30;;;;;;;21.67;19.60;;;18.90;99.90;;;;;;5110727;28;20826;-68
2021/08/15 05:51:57;;;;;;;21.80;19.70;;;19.10;99.90;;;;;;5111672;28;20441;-68
2021/08/15 05:54:24;;;;;;;23.27;21.07;;;19.20;99.90;;;;;;5111080;27;20441;-69
2021/08/15 05:56:51;;;;;;;22.23;20.23;;;19.30;99.90;;;;;;5111135;28;20526;-68
2021/08/15 05:59:18;;;;;;;24.97;22.37;;;19.40;99.90;;;;;;5110430;28;20445;-68
2021/08/15 06:01:46;;;;;;;25.17;22.87;;;19.40;99.90;;;;;;5111305;28;20496;-69
2021/08/15 06:04:13;;;;;;;21.90;20.00;;;19.40;99.90;;;;;;5111306;28;20441;-68
2021/08/15 06:06:40;;;;;;;22.63;20.53;;;19.50;99.90;;;;;;5111437;28;20445;-66
2021/08/15 06:09:07;;;;;;;23.87;21.60;;;19.60;99.90;;;;;;5110419;28;20553;-66
2021/08/15 06:11:34;;;;;;;22.73;20.63;;;19.70;99.90;;;;;;5111237;28;20858;-66
2021/08/15 06:14:02;;;;;;;21.77;19.87;;;19.80;99.90;;;;;;5110972;28;20441;-68
2021/08/15 06:16:29;;;;;;;23.47;21.07;;;19.90;99.90;;;;;;5110859;28;20859;-67
2021/08/15 06:18:57;;;;;;;24.77;22.20;;;19.90;99.90;;;;;;5110510;28;20495;-69
2021/08/15 06:21:24;;;;;;;23.47;21.10;;;20.00;99.90;;;;;;5111217;28;20469;-69
2021/08/15 06:23:52;;;;;;;25.07;22.67;;;20.10;99.90;;;;;;5111041;28;20958;-69
2021/08/15 06:26:19;;;;;;;22.90;20.80;;;20.30;99.90;;;;;;5110668;28;20444;-68
2021/08/15 06:28:46;;;;;;;24.87;22.50;;;20.50;99.90;;;;;;5110636;28;20494;-67
2021/08/15 06:31:13;;;;;;;22.43;20.27;;;20.70;99.90;;;;;;5109878;28;20467;-67
2021/08/15 06:33:40;;;;;;;22.83;20.53;;;20.80;99.90;;;;;;5111155;28;20536;-67
2021/08/15 06:36:09;;;;;;;21.50;19.40;;;20.90;99.90;;;;;;5110593;28;20451;-67
2021/08/15 06:38:36;;;;;;;22.20;20.20;;;21.00;99.90;;;;;;5110746;28;20485;-67
2021/08/15 06:41:02;;;;;;;23.00;20.80;;;21.10;99.90;;;;;;5108161;28;20556;-67
2021/08/15 06:43:29;;;;;;;23.90;21.60;;;21.20;99.90;;;;;;5110950;28;20448;-66
2021/08/15 06:45:58;;;;;;;24.87;22.37;;;21.10;99.90;;;;;;5110594;28;20463;-67
2021/08/15 06:48:24;;;;;;;22.43;20.43;;;21.10;99.90;;;;;;5110607;28;20986;-68
2021/08/15 06:50:53;;;;;;;22.93;20.93;;;21.20;99.90;;;;;;5109713;28;20492;-67
2021/08/15 06:53:22;;;;;;;22.27;20.27;;;21.30;99.90;;;;;;5110391;28;20448;-67
2021/08/15 06:55:49;;;;;;;25.47;20.80;;;21.40;99.90;;;;;;5110595;28;20453;-67
2021/08/15 06:58:17;;;;;;;23.87;21.77;;;21.50;99.90;;;;;;5110823;28;20480;-67
2021/08/15 07:00:44;;;;;;;22.80;20.50;;;21.60;99.90;;;;;;5109516;28;20556;-67
2021/08/15 07:03:11;;;;;;;22.80;20.70;;;21.70;99.90;;;;;;5110071;28;20524;-67
2021/08/15 07:05:38;;;;;;;23.10;21.03;;;21.70;99.90;;;;;;5109722;28;20449;-67
2021/08/15 07:08:05;;;;;;;23.73;21.73;;;21.80;99.90;;;;;;5110071;28;20441;-68
2021/08/15 07:10:34;;;;;;;22.90;20.60;;;22.00;99.90;;;;;;5109254;28;20473;-67
2021/08/15 07:13:04;;;;;;;24.20;21.90;;;22.00;99.90;;;;;;5110340;28;20528;-67
2021/08/15 07:15:31;;;;;;;22.03;19.90;;;22.10;99.90;;;;;;5110070;28;20460;-67
2021/08/15 07:17:58;;;;;;;22.37;20.13;;;22.10;99.90;;;;;;5110280;28;20473;-67
2021/08/15 07:20:26;;;;;;;21.50;19.53;;;22.20;99.90;;;;;;5108871;28;20552;-67
2021/08/15 07:22:53;;;;;;;22.60;20.20;;;22.40;99.90;;;;;;5110451;28;20445;-67
2021/08/15 07:25:20;;;;;;;20.03;17.97;;;22.50;99.90;;;;;;5109684;28;20471;-67
2021/08/15 07:27:49;;;;;;;22.13;20.23;;;22.60;99.90;;;;;;5109883;28;20506;-67
2021/08/15 07:30:16;;;;;;;20.23;18.03;;;22.70;99.90;;;;;;5108783;28;20850;-68
2021/08/15 07:35:33;;;;;;;20.53;18.80;;;22.90;99.90;;;;;;5109491;28;20850;-67
2021/08/15 07:38:00;;;;;;;21.30;19.10;;;23.10;99.90;;;;;;5109686;28;20589;-67
2021/08/15 07:40:28;;;;;;;20.40;18.50;;;23.10;99.90;;;;;;5109033;28;20473;-67
2021/08/15 07:42:57;;;;;;;20.03;18.13;;;23.20;99.90;;;;;;5109578;28;20814;-67
2021/08/15 07:45:26;;;;;;;20.60;18.60;;;23.30;99.90;;;;;;5109306;28;20449;-68
2021/08/15 07:47:54;;;;;;;20.07;18.00;;;23.50;99.90;;;;;;5109946;28;20886;-67
2021/08/15 07:50:22;;;;;;;18.23;16.60;;;23.50;99.90;;;;;;5108956;28;20465;-67
2021/08/15 07:52:49;;;;;;;17.60;15.90;;;23.50;99.90;;;;;;5109840;28;20441;-68
2021/08/15 07:55:16;;;;;;;17.13;15.60;;;23.60;99.90;;;;;;5109464;28;20488;-67
2021/08/15 07:57:43;;;;;;;16.97;15.47;;;23.70;99.90;;;;;;5109127;28;21009;-68
2021/08/15 08:00:12;;;;;;;17.77;15.97;;;23.80;99.90;;;;;;5108513;28;20970;-67
2021/08/15 08:02:39;;;;;;;18.17;16.47;;;23.90;99.90;;;;;;5113377;28;20441;-68
2021/08/15 08:05:07;;;;;;;18.17;16.53;;;23.90;99.90;;;;;;5113214;28;20524;-67
2021/08/15 08:07:34;;;;;;;19.20;17.27;;;23.90;99.90;;;;;;5113353;28;20484;-67
2021/08/15 08:10:01;;;;;;;17.77;16.17;;;24.10;99.90;;;;;;5112549;28;20477;-67
2021/08/15 08:12:28;;;;;;;18.07;16.37;;;24.10;99.90;;;;;;5113507;28;20866;-67
2021/08/15 08:14:55;;;;;;;17.70;16.10;;;24.20;99.90;;;;;;5112933;28;20452;-68
2021/08/15 08:17:23;;;;;;;17.97;16.33;;;24.40;99.90;;;;;;5113271;28;20445;-67
2021/08/15 08:19:50;;;;;;;17.60;15.80;;;24.50;99.90;;;;;;5112118;28;20471;-68
2021/08/15 08:22:17;;;;;;;18.03;16.43;;;24.70;99.90;;;;;;5113248;28;20503;-67
2021/08/15 08:24:44;;;;;;;17.67;16.13;;;24.70;99.90;;;;;;5112533;28;21026;-67
2021/08/15 08:27:11;;;;;;;17.97;16.27;;;24.80;99.90;;;;;;5112859;28;20442;-67
2021/08/15 08:29:37;;;;;;;19.30;16.20;;;24.90;99.90;;;;;;5112146;28;20456;-68
2021/08/15 08:32:05;;;;;;;18.93;17.23;;;25.00;99.90;;;;;;5112660;28;20857;-67
2021/08/15 08:34:33;;;;;;;18.37;16.47;;;25.20;99.90;;;;;;5112504;28;21053;-68
2021/08/15 08:37:00;;;;;;;16.50;14.90;;;25.30;99.90;;;;;;5112738;28;20532;-68
2021/08/15 08:39:29;;;;;;;17.10;15.50;;;25.40;99.90;;;;;;5111745;28;20915;-68
2021/08/15 08:41:59;;;;;;;18.10;16.23;;;25.50;99.90;;;;;;5112898;28;20456;-68
2021/08/15 08:44:29;;;;;;;17.63;15.93;;;25.60;99.90;;;;;;5112416;28;20445;-68
2021/08/15 08:46:59;;;;;;;17.80;16.10;;;25.50;99.90;;;;;;5112780;28;20477;-67
2021/08/15 08:49:26;;;;;;;17.60;15.90;;;25.50;99.90;;;;;;5112189;28;20473;-68
2021/08/15 08:51:56;;;;;;;17.70;16.10;;;25.60;99.90;;;;;;5112539;28;20460;-67
2021/08/15 08:54:24;;;;;;;18.07;16.07;;;25.60;99.90;;;;;;5112025;28;20453;-67
2021/08/15 08:56:51;;;;;;;17.93;16.33;;;25.80;99.90;;;;;;5112710;28;20528;-67
2021/08/15 08:59:18;;;;;;;15.70;14.20;;;26.00;99.90;;;;;;5111293;28;21006;-68
2021/08/15 09:01:44;;;;;;;16.47;14.70;;;26.10;99.90;;;;;;5112237;28;20467;-68
2021/08/15 09:04:11;;;;;;;15.80;14.07;;;26.20;99.90;;;;;;5112170;28;20445;-67
2021/08/15 09:06:40;;;;;;;15.60;14.10;;;26.40;99.90;;;;;;5111867;28;20980;-68
2021/08/15 09:09:12;;;;;;;14.77;13.43;;;26.60;99.90;;;;;;5111196;28;20442;-68
2021/08/15 09:11:39;;;;;;;16.30;14.80;;;26.90;99.90;;;;;;5112152;28;20540;-68
2021/08/15 09:14:08;;;;;;;17.10;15.50;;;27.00;99.90;;;;;;5111306;28;20551;-67
2021/08/15 09:16:58;;;;;;;16.47;14.97;;;27.00;99.90;;;;;;5111996;28;20444;-68
2021/08/15 09:19:31;;;;;;;15.40;14.00;;;26.80;99.90;;;;;;5111385;28;20487;-68
2021/08/15 09:22:10;;;;;;;15.30;13.90;;;27.00;99.90;;;;;;5112457;28;20472;-68
2021/08/15 09:24:48;;;;;;;14.63;13.43;;;27.30;99.90;;;;;;5111686;28;20946;-68
2021/08/15 09:27:20;;;;;;;15.93;14.53;;;27.60;99.90;;;;;;5112180;28;21045;-68
2021/08/15 09:30:05;;;;;;;15.47;13.97;;;27.50;99.90;;;;;;5111633;28;20837;-67
2021/08/15 09:32:32;;;;;;;14.93;13.50;;;27.60;99.90;;;;;;5112371;28;20596;-68
2021/08/15 09:34:59;;;;;;;15.70;14.23;;;27.80;99.90;;;;;;5111536;28;20532;-68
2021/08/15 09:37:29;;;;;;;18.73;16.77;;;28.00;99.90;;;;;;5111862;28;20437;-68
2021/08/15 09:39:57;;;;;;;13.63;12.53;;;28.40;99.90;;;;;;5110597;28;20503;-68
2021/08/15 09:42:41;;;;;;;13.53;12.43;;;28.80;99.90;;;;;;5111704;28;20536;-68
2021/08/15 09:45:12;;;;;;;14.93;13.47;;;29.30;99.90;;;;;;5111427;28;21033;-68
2021/08/15 09:47:39;;;;;;;15.00;13.60;;;29.70;99.90;;;;;;5111869;28;20449;-68
2021/08/15 09:50:18;;;;;;;13.67;12.40;;;30.10;99.90;;;;;;5110847;28;21005;-69
2021/08/15 09:52:45;;;;;;;13.90;12.60;;;30.30;99.90;;;;;;5111622;27;20458;-69
2021/08/15 09:55:14;;;;;;;13.33;12.13;;;30.70;99.90;;;;;;5111435;28;20501;-68
2021/08/15 09:57:42;;;;;;;13.10;11.80;;;31.20;99.90;;;;;;5111455;28;20441;-68
2021/08/15 10:00:33;;;;;;;13.83;12.60;;;31.50;99.90;;;;;;5110392;28;20920;-68
2021/08/15 10:03:03;;;;;;;14.63;13.20;;;31.30;99.90;;;;;;5111089;28;20473;-69
2021/08/15 10:05:29;;;;;;;13.30;11.97;;;31.40;99.90;;;;;;5110853;28;20445;-68
2021/08/15 10:07:57;;;;;;;13.93;12.33;;;31.70;99.90;;;;;;5111537;28;20445;-68
2021/08/15 10:10:26;;;;;;;13.57;12.37;;;31.50;99.90;;;;;;5110257;28;20576;-68
2021/08/15 10:12:52;;;;;;;14.00;12.70;;;31.90;99.90;;;;;;5110835;28;21031;-68
2021/08/15 10:15:19;;;;;;;12.90;11.60;;;32.10;99.90;;;;;;5110475;28;20967;-68
2021/08/15 10:17:49;;;;;;;13.17;12.07;;;32.40;99.90;;;;;;5110836;28;20456;-68
2021/08/15 10:20:21;;;;;;;12.67;11.47;;;32.50;99.90;;;;;;5109977;28;20480;-68
2021/08/15 10:22:50;;;;;;;12.90;11.70;;;32.70;99.90;;;;;;5110699;28;20502;-68
2021/08/15 10:25:34;;;;;;;12.60;11.53;;;33.20;99.90;;;;;;5110045;28;21046;-68
2021/08/15 10:28:02;;;;;;;11.83;10.83;;;33.90;98.40;;;;;;5111042;28;20446;-68
2021/08/15 10:30:51;;;;;;;12.93;11.73;;;34.30;96.70;;;;;;5109958;28;20546;-68
2021/08/15 10:33:26;;;;;;;12.30;11.17;;;34.00;96.90;;;;;;5110945;28;20431;-68
2021/08/15 10:36:25;;;;;;;13.70;12.30;;;33.40;98.10;;;;;;5110306;28;20516;-68
2021/08/15 10:38:54;;;;;;;12.57;11.47;;;32.90;98.10;;;;;;5110419;28;20489;-68
2021/08/15 10:41:54;;;;;;;13.20;11.90;;;32.20;99.30;;;;;;5110029;28;20979;-68
2021/08/15 10:44:22;;;;;;;12.13;10.93;;;31.70;99.90;;;;;;5109998;28;20521;-68
2021/08/15 10:47:22;;;;;;;12.30;11.10;;;32.20;99.90;;;;;;5110621;28;20481;-69
2021/08/15 10:49:54;;;;;;;12.83;11.73;;;33.00;99.70;;;;;;5046342;28;20460;-68
2021/08/15 10:52:34;;;;;;;12.00;11.00;;;33.40;99.40;;;;;;5047187;28;20467;-69
2021/08/15 10:55:02;;;;;;;11.60;10.40;;;33.90;99.20;;;;;;5082424;28;20441;-69
2021/08/15 10:57:53;;;;;;;11.80;10.60;;;34.50;98.20;;;;;;5110747;28;20946;-68
2021/08/15 11:00:43;;;;;;;13.73;11.20;;;34.60;96.10;;;;;;5109522;28;20568;-69
2021/08/15 11:03:43;;;;;;;11.57;10.57;;;34.30;95.60;;;;;;5109880;28;20490;-69
2021/08/15 11:06:47;;;;;;;12.77;11.50;;;33.80;98.30;;;;;;5099301;28;20965;-68
2021/08/15 11:09:15;;;;;;;16.53;15.13;;;33.20;97.10;;;;;;5109213;28;20445;-68
2021/08/15 11:12:13;;;;;;;13.73;12.53;;;32.50;96.90;;;;;;5109753;28;20468;-68
2021/08/15 11:15:01;;;;;;;12.23;11.23;;;31.70;99.10;;;;;;5110064;28;20466;-68
2021/08/15 11:17:29;;;;;;;13.50;12.20;;;30.90;99.90;;;;;;5109940;28;20492;-68
2021/08/15 11:19:56;;;;;;;13.50;11.50;;;30.30;99.90;;;;;;5108730;28;21014;-68
2021/08/15 11:22:27;;;;;;;11.40;10.43;;;29.90;99.90;;;;;;5109914;28;20446;-68
2021/08/15 11:24:57;;;;;;;12.50;11.23;;;29.70;99.90;;;;;;5109506;28;20425;-69
2021/08/15 11:27:30;;;;;;;13.00;11.70;;;29.60;99.90;;;;;;5110057;28;20532;-68
2021/08/15 11:30:01;;;;;;;13.80;11.40;;;29.50;99.90;;;;;;5109285;28;20461;-68
2021/08/15 11:32:30;;;;;;;12.80;11.63;;;29.30;99.90;;;;;;5109876;28;20441;-68
2021/08/15 11:34:59;;;;;;;13.00;11.70;;;29.10;99.90;;;;;;5109796;28;20449;-68
2021/08/15 11:37:28;;;;;;;12.37;11.27;;;29.10;99.90;;;;;;5113523;28;20451;-68
2021/08/15 11:39:55;;;;;;;13.00;11.90;;;29.10;99.90;;;;;;5113177;28;20491;-68
2021/08/15 11:42:24;;;;;;;14.00;11.87;;;29.00;99.90;;;;;;5114224;28;20445;-68
2021/08/15 11:44:57;;;;;;;14.20;12.90;;;28.80;99.90;;;;;;5113989;28;20455;-69
2021/08/15 11:47:29;;;;;;;14.90;12.73;;;28.60;99.90;;;;;;5114166;28;20445;-68
2021/08/15 11:49:57;;;;;;;13.67;12.37;;;28.60;99.90;;;;;;5113020;28;20456;-68
2021/08/15 11:52:26;;;;;;;13.07;11.87;;;28.40;99.90;;;;;;5113623;28;20540;-68
2021/08/15 11:54:55;;;;;;;12.37;11.17;;;28.30;99.90;;;;;;5113357;28;20440;-68
2021/08/15 11:57:22;;;;;;;13.63;12.43;;;28.30;99.90;;;;;;5113334;28;20441;-68
2021/08/15 12:00:04;;;;;;;13.67;12.40;;;28.20;99.90;;;;;;5112598;28;20483;-68
2021/08/15 12:02:32;;;;;;;13.07;11.73;;;28.30;99.90;;;;;;5113454;28;20434;-68
2021/08/15 12:04:59;;;;;;;13.20;11.80;;;28.30;99.90;;;;;;5113430;28;20437;-68
2021/08/15 12:07:27;;;;;;;13.57;12.47;;;28.20;99.90;;;;;;5113721;28;20467;-68
2021/08/15 12:10:23;;;;;;;14.47;13.00;;;28.10;99.90;;;;;;5112312;28;20497;-68
2021/08/15 12:13:08;;;;;;;13.13;12.03;;;28.10;99.90;;;;;;5113607;28;20982;-68
2021/08/15 12:15:35;;;;;;;13.63;12.40;;;28.00;99.90;;;;;;5112943;28;20536;-68
2021/08/15 12:18:03;;;;;;;14.20;12.90;;;28.20;99.90;;;;;;5113201;28;20437;-68
2021/08/15 12:20:30;;;;;;;12.57;11.20;;;28.40;99.90;;;;;;5112071;28;20495;-68
2021/08/15 12:23:06;;;;;;;13.77;12.47;;;28.70;99.90;;;;;;5113377;28;20451;-68
2021/08/15 12:25:33;;;;;;;17.53;11.77;;;29.00;99.90;;;;;;5112715;28;20448;-68
2021/08/15 12:28:08;;;;;;;14.20;13.00;;;29.30;99.90;;;;;;5113107;28;20443;-68
2021/08/15 12:30:35;;;;;;;12.63;11.53;;;29.90;99.90;;;;;;5112346;28;20457;-68
2021/08/15 12:33:22;;;;;;;12.40;11.30;;;30.70;99.90;;;;;;5113166;28;20532;-68
2021/08/15 12:35:49;;;;;;;11.60;10.50;;;32.00;99.90;;;;;;5112736;28;20437;-68
2021/08/15 12:38:27;;;;;;;11.97;10.70;;;33.40;99.90;;;;;;5112756;28;20456;-69
2021/08/15 12:40:54;;;;;;;12.63;10.40;;;35.10;97.50;;;;;;5110511;28;21243;-69